Terminal Aerodrome Forecast
Issued by NWS Portland, OR

Home | Current Version | Previous Version | Text Only | Print | Product List | Glossary On
Versions: 1 2 3 4 5 6 7 8 9 10 11 12 13 14 15 16 17 18 19 20 21 22 23 24 25 26 27 28 29
000
FTUS46 KPQR 301130
TAFHIO
TAF
KHIO 301130Z 3012/3112 32004KT P6SM VCSH BKN045 OVC060
     FM301500 23005KT P6SM VCSH SCT022 OVC045
     FM302200 24005KT P6SM -SHRA BKN035 OVC050
     FM310400 VRB03KT P6SM BKN050=

USA.gov is the U.S. government's official web portal to all federal, state and local government web resources and services.